map of LUD home
LUD - Airport
Location
City:  Lüderitz, Karas, Namibia
Name:Lüderitz Airport
Old (Alt.):Diaz Point Airport
ICAO:FYLZ
IATA:LUD

Details
Type:Airport (Aerodrome, Airfield)
Latitude:26°41'15"S (-26.687368)
Longitude:15°14'34"E (15.242861)
Datum:WGS 1984
Elevation:457 ft (139 m)
Variation:16.92°W (WMM2015 magnetic declination)
0.05° annual change
Runways:2
Longest:6004 × 98 ft (1830 × 30 m), paved

Time
Time Zone:UTC+1 (DST+2)
Local Time:

Weather
METAR:FYLZ 280900Z AUTO 15003KT //// // ////// 18/13 Q1023

Related Locations
Nearby:
Farthest:PHHF: 12216 mi / 19660 km
Tern Island [French Frigate Shoals Airport], HI, US

Find:

   beyond  
but within

Other Information
Maps:
NOTAMs:
Links:
Sources:

  
flag of Namibia   

Sectional Chart

Flight Planning
at skyvector.com

Satellite Image

Google Maps Satellite view

 

Copyright © 2004-2017 Karl L. Swartz. All rights reserved.
The Great Circle Mapper name and logo are trademarks of the Great Circle Mapper.
All other trademarks mentioned herein belong to their respective owners.
Please see credits for attibutions and further copyright information.

  Follow gcmap on Facebook Follow gcmap on Twitter Follow gcmap on Google+ GCmap on LinkedIn

hCard Microformat

Geo Microformat